Terminal Aerodrome Forecast
Issued by NWS Wakefield, VA

Home | Current Version | Previous Version | Text Only | Print | Product List | Glossary On
Versions: 1 2 3 4 5 6 7 8 9 10 11 12 13 14 15 16 17 18 19 20 21 22 23 24 25 26 27 28 29 30 31 32 33 34 35 36
390
FTUS41 KAKQ 201307 AAA
TAFORF
TAF AMD
KORF 201307Z 2013/2112 22014G22KT P6SM VCSH SCT025 OVC040
      TEMPO 2013/2014 22020G30KT
     FM201500 27012G20KT P6SM BKN035 OVC050
     FM201700 32020G30KT P6SM BKN050
     FM202000 33024G35KT P6SM BKN060
     FM210200 33020G30KT P6SM SCT120=

USA.gov is the U.S. government's official web portal to all federal, state and local government web resources and services.